Search for airport 
image banner adimage banner adimage banner ad
image banner ad

U08 - Perkins Field

Located in Overton, United States

ICAO - U08, IATA -

Data provided by Airmate  

General information

Coordinates: N36°34'5" W114°26'36"
Elevation is 1366 feet MSL.
Magnetic variation is 14° East
View others Airports in Nevada

Operational data

Special qualification required
Current time UTC:
Current local time:
Weather at : KLSV - Nellis Afb ( 64 km )
METAR: KLSV 131158Z AUTO 10003KT 10SM CLR 22/M10 A2980 RMK AO2 SLP066 T02231096 10328 20221 $
TAF: TAF KLSV 130700Z 1307/1413 17009KT 9999 SKC QNH2975INS BECMG 1318/1319 18012G18KT 9999 SKC QNH2986INS TEMPO 1320/1402 16015G25KT 520009 BECMG 1401/1402 25010KT 9999 SKC QNH2974INS TX41/1323Z TN23/1313Z
View NOTAMs / SUP AIP / TFR affecting this airport [VIEW]
Communications frequencies: [VIEW]

Runways:

RWY identifierQFULength (ft)Width (ft)SurfaceLDA (ft)
13481175ASPH
31481175ASPH

Airport contact information

Address: Overton United States

Satellite view of U08